createdAt,value
2018-09-03T00:00:13.675Z,8.87
2018-09-03T00:02:43.935Z,9.70
2018-09-03T00:05:14.310Z,8.33
2018-09-03T00:07:44.512Z,9.37
2018-09-03T00:10:14.645Z,9.80
2018-09-03T00:12:44.765Z,8.83
2018-09-03T00:15:15.093Z,8.40
2018-09-03T00:17:45.143Z,7.93
2018-09-03T00:20:15.409Z,8.67
2018-09-03T00:22:45.688Z,8.63
2018-09-03T00:25:17.103Z,9.13
2018-09-03T00:27:47.208Z,9.27
2018-09-03T00:30:18.270Z,8.40
2018-09-03T00:32:53.346Z,7.73
2018-09-03T00:35:30.227Z,8.37
2018-09-03T00:38:08.148Z,8.67
2018-09-03T00:40:43.360Z,7.70
2018-09-03T00:43:18.433Z,8.40
2018-09-03T00:45:53.550Z,8.97
2018-09-03T00:48:23.519Z,8.90
2018-09-03T00:50:53.717Z,8.83
2018-09-03T00:53:24.873Z,8.33
2018-09-03T00:55:56.418Z,9.10
2018-09-03T00:58:26.747Z,7.97
2018-09-03T01:00:56.779Z,7.83
2018-09-03T01:03:26.943Z,8.27
2018-09-03T01:05:56.988Z,8.07
2018-09-03T01:08:27.133Z,9.03
2018-09-03T01:10:57.350Z,8.27
2018-09-03T01:13:29.146Z,8.50
2018-09-03T01:15:59.186Z,8.67
2018-09-03T01:18:29.645Z,8.00
2018-09-03T01:21:00.001Z,8.20
2018-09-03T01:23:30.076Z,8.13
2018-09-03T01:26:00.272Z,9.00
2018-09-03T01:28:30.415Z,9.90
2018-09-03T01:31:00.640Z,9.00
2018-09-03T01:33:30.872Z,8.97
2018-09-03T01:36:01.165Z,9.40
2018-09-03T01:38:31.255Z,9.70
2018-09-03T01:41:01.664Z,9.00
2018-09-03T01:43:31.862Z,9.17
2018-09-03T01:46:01.811Z,9.00
2018-09-03T01:48:31.809Z,9.73
2018-09-03T01:51:02.147Z,9.27
2018-09-03T01:53:32.598Z,9.83
2018-09-03T01:56:04.449Z,9.97
2018-09-03T01:58:34.815Z,9.53
2018-09-03T02:01:04.965Z,10.03
2018-09-03T02:03:35.210Z,10.27
2018-09-03T02:06:06.431Z,9.53
2018-09-03T02:08:36.353Z,9.80
2018-09-03T02:11:06.373Z,10.27
2018-09-03T02:13:36.855Z,9.10
2018-09-03T02:16:06.954Z,9.87
2018-09-03T02:18:37.334Z,9.93
2018-09-03T02:21:07.782Z,9.00
2018-09-03T02:23:38.285Z,9.90
2018-09-03T02:26:08.199Z,9.17
2018-09-03T02:28:38.460Z,10.43
2018-09-03T02:31:08.769Z,10.90
2018-09-03T02:33:38.948Z,9.90
2018-09-03T02:36:08.924Z,9.10
2018-09-03T02:38:39.312Z,9.40
2018-09-03T02:41:09.472Z,8.50
2018-09-03T02:43:39.653Z,10.27
2018-09-03T02:46:10.057Z,10.13
2018-09-03T02:48:40.123Z,9.90
2018-09-03T02:51:12.847Z,10.00
2018-09-03T02:53:43.034Z,8.93
2018-09-03T02:56:13.491Z,10.50
2018-09-03T02:58:43.526Z,9.67
2018-09-03T03:01:13.738Z,10.37
2018-09-03T03:03:44.722Z,10.70
2018-09-03T03:06:14.894Z,10.83
2018-09-03T03:08:46.233Z,9.43
2018-09-03T03:11:17.179Z,10.80
2018-09-03T03:13:47.396Z,10.60
2018-09-03T03:16:17.731Z,10.20
2018-09-03T03:18:47.941Z,10.10
2018-09-03T03:21:20.010Z,11.20
2018-09-03T03:23:50.200Z,10.60
2018-09-03T03:26:20.500Z,10.40
2018-09-03T03:28:50.401Z,10.13
2018-09-03T03:31:20.596Z,11.20
2018-09-03T03:33:50.750Z,10.80
2018-09-03T03:36:20.864Z,11.77
2018-09-03T03:38:51.250Z,9.43
2018-09-03T03:41:21.635Z,9.93
2018-09-03T03:43:51.556Z,10.10
2018-09-03T03:46:22.638Z,11.43
2018-09-03T03:48:53.163Z,10.07
2018-09-03T03:51:23.444Z,10.37
2018-09-03T03:53:53.610Z,11.03
2018-09-03T03:56:23.795Z,10.13
2018-09-03T03:58:54.305Z,11.77
2018-09-03T04:01:24.635Z,9.50
2018-09-03T04:03:54.778Z,11.27
2018-09-03T04:06:25.247Z,9.53
2018-09-03T04:08:55.526Z,10.37
2018-09-03T04:11:27.140Z,10.10
2018-09-03T04:13:57.175Z,10.60
2018-09-03T04:16:27.483Z,11.63
2018-09-03T04:18:57.639Z,10.97
2018-09-03T04:21:28.133Z,10.67
2018-09-03T04:23:58.768Z,11.30
2018-09-03T04:26:28.943Z,11.60
2018-09-03T04:28:59.483Z,10.73
2018-09-03T04:31:30.472Z,12.00
2018-09-03T04:34:00.579Z,10.47
2018-09-03T04:36:35.022Z,11.47
2018-09-03T04:39:05.744Z,10.70
2018-09-03T04:41:36.016Z,10.67
2018-09-03T04:44:06.364Z,11.00
2018-09-03T04:46:37.272Z,9.93
2018-09-03T04:49:07.462Z,9.93
2018-09-03T04:51:38.496Z,11.00
2018-09-03T04:56:46.096Z,11.10
2018-09-03T04:59:16.349Z,10.63
2018-09-03T05:01:46.627Z,11.03
2018-09-03T05:04:16.802Z,11.80
2018-09-03T05:06:48.477Z,10.90
2018-09-03T05:09:18.492Z,10.33
2018-09-03T05:11:51.159Z,11.20
2018-09-03T05:14:21.813Z,10.43
2018-09-03T05:16:54.396Z,10.47
2018-09-03T05:19:24.580Z,10.03
2018-09-03T05:21:56.300Z,8.93
2018-09-03T05:24:27.686Z,11.03
2018-09-03T05:26:57.896Z,11.23
2018-09-03T05:29:28.051Z,9.87
2018-09-03T05:31:58.136Z,9.43
2018-09-03T05:34:29.115Z,9.10
2018-09-03T05:37:02.275Z,9.20
2018-09-03T05:39:34.099Z,9.60
2018-09-03T05:42:04.361Z,8.80
2018-09-03T05:44:34.592Z,8.70
2018-09-03T05:47:04.638Z,8.93
2018-09-03T05:49:35.059Z,7.50
2018-09-03T05:52:05.324Z,9.80
2018-09-03T05:54:35.678Z,8.33
2018-09-03T05:57:06.149Z,8.80
2018-09-03T05:59:36.453Z,7.67
2018-09-03T06:02:06.750Z,8.80
2018-09-03T06:04:37.064Z,9.03
2018-09-03T06:07:07.460Z,8.57
2018-09-03T06:09:37.733Z,8.50
2018-09-03T06:12:07.829Z,8.97
2018-09-03T06:14:38.119Z,8.17
2018-09-03T06:17:08.260Z,10.73
2018-09-03T06:19:38.394Z,8.93
2018-09-03T06:22:08.908Z,8.93
2018-09-03T06:24:39.204Z,9.97
2018-09-03T06:27:10.569Z,9.63
2018-09-03T06:29:40.767Z,10.03
2018-09-03T06:32:11.052Z,9.60
2018-09-03T06:34:41.091Z,10.27
2018-09-03T06:37:11.026Z,9.13
2018-09-03T06:39:42.196Z,8.90
2018-09-03T06:42:12.355Z,10.07
2018-09-03T06:44:42.618Z,9.37
2018-09-03T06:47:12.717Z,14.67
2018-09-03T06:49:43.011Z,13.57
2018-09-03T06:52:13.246Z,11.67
2018-09-03T06:54:44.228Z,10.30
2018-09-03T06:57:15.216Z,11.53
2018-09-03T06:59:46.435Z,10.30
2018-09-03T07:02:16.780Z,9.37
2018-09-03T07:04:46.791Z,9.17
2018-09-03T07:07:16.881Z,9.67
2018-09-03T07:09:47.213Z,9.90
2018-09-03T07:12:19.087Z,9.83
2018-09-03T07:14:49.363Z,10.37
2018-09-03T07:17:20.844Z,10.67
2018-09-03T07:19:51.109Z,10.43
2018-09-03T07:22:22.669Z,10.50
2018-09-03T07:24:53.764Z,9.20
2018-09-03T07:27:25.424Z,11.07
2018-09-03T07:29:55.804Z,10.30
2018-09-03T07:32:26.104Z,8.63
2018-09-03T07:34:56.655Z,9.00
2018-09-03T07:37:27.240Z,9.13
2018-09-03T07:39:57.880Z,10.13
2018-09-03T07:42:28.683Z,9.97
2018-09-03T07:44:58.977Z,10.33
2018-09-03T07:47:29.032Z,9.60
2018-09-03T07:49:59.199Z,11.10
2018-09-03T07:52:29.883Z,9.40
2018-09-03T07:55:00.073Z,8.93
2018-09-03T07:57:30.366Z,8.83
2018-09-03T08:00:00.576Z,9.03
2018-09-03T08:02:30.687Z,8.90
2018-09-03T08:05:01.412Z,8.70
2018-09-03T08:07:31.703Z,7.73
2018-09-03T08:10:02.874Z,10.40
2018-09-03T08:12:33.072Z,9.70
2018-09-03T08:15:03.432Z,13.90
2018-09-03T08:17:33.444Z,9.70
2018-09-03T08:20:03.934Z,10.37
2018-09-03T08:22:34.112Z,10.70
2018-09-03T08:25:04.356Z,9.97
2018-09-03T08:27:34.516Z,9.27
2018-09-03T08:30:06.490Z,9.53
2018-09-03T08:32:37.143Z,10.17
2018-09-03T08:35:07.556Z,14.60
2018-09-03T08:37:38.627Z,9.47
2018-09-03T08:40:08.792Z,11.60
2018-09-03T08:42:39.022Z,10.37
2018-09-03T08:45:09.853Z,10.10
2018-09-03T08:47:40.637Z,9.80
2018-09-03T08:50:12.110Z,13.20
2018-09-03T08:52:43.341Z,10.60
2018-09-03T08:55:14.186Z,9.10
2018-09-03T08:57:44.525Z,9.43
2018-09-03T09:00:14.707Z,9.43
2018-09-03T09:02:44.835Z,8.77
2018-09-03T09:05:15.749Z,14.03
2018-09-03T09:07:46.036Z,14.93
2018-09-03T09:10:16.270Z,14.30
2018-09-03T09:12:46.312Z,16.80
2018-09-03T09:15:16.553Z,14.50
2018-09-03T09:17:46.847Z,19.10
2018-09-03T09:20:17.175Z,15.50
2018-09-03T09:22:47.675Z,11.47
2018-09-03T09:25:17.864Z,11.73
2018-09-03T09:27:48.339Z,10.57
2018-09-03T09:30:18.407Z,8.53
2018-09-03T09:32:48.454Z,9.93
2018-09-03T09:35:18.580Z,7.97
2018-09-03T09:37:48.948Z,9.17
2018-09-03T09:40:19.085Z,8.73
2018-09-03T09:42:49.697Z,8.43
2018-09-03T09:45:19.715Z,7.67
2018-09-03T09:47:50.058Z,8.17
2018-09-03T09:50:20.680Z,7.63
2018-09-03T09:52:51.088Z,7.60
2018-09-03T09:55:21.808Z,8.17
2018-09-03T09:57:52.073Z,8.30
2018-09-03T10:00:27.269Z,8.53
2018-09-03T10:02:57.565Z,7.77
2018-09-03T10:05:27.927Z,7.60
2018-09-03T10:07:58.291Z,7.80
2018-09-03T10:10:28.537Z,9.00
2018-09-03T10:13:02.787Z,8.07
2018-09-03T10:15:33.321Z,7.90
2018-09-03T10:18:04.354Z,8.43
2018-09-03T10:20:34.595Z,8.57
2018-09-03T10:23:05.521Z,12.20
2018-09-03T10:25:35.345Z,10.50
2018-09-03T10:28:05.602Z,9.67
2018-09-03T10:30:35.626Z,10.60
2018-09-03T10:33:05.431Z,12.07
2018-09-03T10:35:35.554Z,9.73
2018-09-03T10:38:05.679Z,8.77
2018-09-03T10:40:35.509Z,9.43
2018-09-03T10:43:05.223Z,8.70
2018-09-03T10:45:35.121Z,8.10
2018-09-03T10:48:06.110Z,8.17
2018-09-03T10:50:36.033Z,9.43
2018-09-03T10:53:06.366Z,9.70
2018-09-03T10:55:36.127Z,9.23
2018-09-03T10:58:06.754Z,8.77
2018-09-03T11:00:37.070Z,9.00
2018-09-03T11:03:08.059Z,9.00
2018-09-03T11:05:37.919Z,9.50
2018-09-03T11:08:07.999Z,8.60
2018-09-03T11:10:37.923Z,8.30
2018-09-03T11:13:08.414Z,9.37
2018-09-03T11:15:38.568Z,8.87
2018-09-03T11:18:08.721Z,7.40
2018-09-03T11:20:38.521Z,7.53
2018-09-03T11:23:08.485Z,8.40
2018-09-03T11:25:38.314Z,9.40
2018-09-03T11:28:08.383Z,7.47
2018-09-03T11:30:38.625Z,8.10
2018-09-03T11:33:08.569Z,8.57
2018-09-03T11:35:38.655Z,8.07
2018-09-03T11:38:08.560Z,8.37
2018-09-03T11:40:38.489Z,7.87
2018-09-03T11:43:08.359Z,8.80
2018-09-03T11:45:38.114Z,8.50
2018-09-03T11:48:07.962Z,8.50
2018-09-03T11:50:38.352Z,9.30
2018-09-03T11:53:08.501Z,8.40
2018-09-03T11:55:38.808Z,8.40
2018-09-03T11:58:08.964Z,9.20
2018-09-03T12:00:39.101Z,9.30
2018-09-03T12:03:08.944Z,7.70
2018-09-03T12:05:39.909Z,7.40
2018-09-03T12:08:09.747Z,8.23
2018-09-03T12:10:39.749Z,7.73
2018-09-03T12:13:09.851Z,8.20
2018-09-03T12:15:48.938Z,7.80
2018-09-03T12:18:18.871Z,7.80
2018-09-03T12:20:48.904Z,8.67
2018-09-03T12:23:19.007Z,8.40
2018-09-03T12:25:51.405Z,8.53
2018-09-03T12:28:21.031Z,9.27
2018-09-03T12:30:50.645Z,9.03
2018-09-03T12:33:20.252Z,7.93
2018-09-03T12:35:50.866Z,8.00
2018-09-03T12:38:21.352Z,7.03
2018-09-03T12:40:51.102Z,8.47
2018-09-03T12:43:20.966Z,8.47
2018-09-03T12:45:55.690Z,7.90
2018-09-03T12:48:25.321Z,8.10
2018-09-03T12:50:55.004Z,7.53
2018-09-03T12:53:24.897Z,7.50
2018-09-03T12:55:55.663Z,8.37
2018-09-03T12:58:25.369Z,8.97
2018-09-03T13:00:55.225Z,9.07
2018-09-03T13:03:24.896Z,9.13
2018-09-03T13:05:55.074Z,8.27
2018-09-03T13:08:25.252Z,7.57
2018-09-03T13:10:55.099Z,7.93
2018-09-03T13:13:24.886Z,8.53
2018-09-03T13:15:57.166Z,7.27
2018-09-03T13:18:27.043Z,8.60
2018-09-03T13:20:57.100Z,7.60
2018-09-03T13:23:27.147Z,7.60
2018-09-03T13:25:56.967Z,7.40
2018-09-03T13:28:26.863Z,7.40
2018-09-03T13:30:56.836Z,7.63
2018-09-03T13:33:26.967Z,7.37
2018-09-03T13:35:58.129Z,6.90
2018-09-03T13:38:28.338Z,7.60
2018-09-03T13:40:59.178Z,7.63
2018-09-03T13:43:29.119Z,7.50
2018-09-03T13:46:00.019Z,7.87
2018-09-03T13:48:29.884Z,7.20
2018-09-03T13:50:59.781Z,7.10
2018-09-03T13:53:33.841Z,6.33
2018-09-03T13:56:03.769Z,6.80
2018-09-03T13:58:33.868Z,7.77
2018-09-03T14:01:04.797Z,7.20
2018-09-03T14:03:35.147Z,7.97
2018-09-03T14:06:05.042Z,7.13
2018-09-03T14:08:35.101Z,8.23
2018-09-03T14:11:05.349Z,7.07
2018-09-03T14:13:35.272Z,7.90
2018-09-03T14:16:05.246Z,7.93
2018-09-03T14:18:35.399Z,8.00
2018-09-03T14:21:05.516Z,7.77
2018-09-03T14:23:37.712Z,8.30
2018-09-03T14:26:08.718Z,7.90
2018-09-03T14:28:38.673Z,6.93
2018-09-03T14:31:08.559Z,6.17
2018-09-03T14:33:38.393Z,7.80
2018-09-03T14:36:08.471Z,8.17
2018-09-03T14:38:38.229Z,7.20
2018-09-03T14:41:08.310Z,6.60
2018-09-03T14:43:38.186Z,7.93
2018-09-03T14:46:08.896Z,7.27
2018-09-03T14:48:38.862Z,7.53
2018-09-03T14:51:09.234Z,6.87
2018-09-03T14:53:40.993Z,7.80
2018-09-03T14:56:11.409Z,6.80
2018-09-03T14:58:41.499Z,7.70
2018-09-03T15:01:11.944Z,7.30
2018-09-03T15:03:42.346Z,7.47
2018-09-03T15:06:12.260Z,7.90
2018-09-03T15:08:42.027Z,7.40
2018-09-03T15:11:12.016Z,8.33
2018-09-03T15:13:41.879Z,8.10
2018-09-03T15:16:11.595Z,7.63
2018-09-03T15:18:41.614Z,7.73
2018-09-03T15:21:15.559Z,8.77
2018-09-03T15:23:47.860Z,8.40
2018-09-03T15:26:20.363Z,7.53
2018-09-03T15:28:54.643Z,7.90
2018-09-03T15:31:30.942Z,7.73
2018-09-03T15:34:04.787Z,8.20
2018-09-03T15:36:36.955Z,8.37
2018-09-03T15:39:13.178Z,11.50
2018-09-03T15:41:46.107Z,7.53
2018-09-03T15:44:19.414Z,7.43
2018-09-03T15:46:50.750Z,8.03
2018-09-03T15:49:20.849Z,6.97
2018-09-03T15:51:51.456Z,7.67
2018-09-03T15:54:23.516Z,7.53
2018-09-03T15:56:53.556Z,7.77
2018-09-03T15:59:24.509Z,8.13
2018-09-03T16:01:55.163Z,7.60
2018-09-03T16:04:25.439Z,6.87
2018-09-03T16:06:55.346Z,7.00
2018-09-03T16:09:26.883Z,8.40
2018-09-03T16:11:57.589Z,7.80
2018-09-03T16:14:28.082Z,7.57
2018-09-03T16:16:58.082Z,7.63
2018-09-03T16:19:28.055Z,7.73
2018-09-03T16:21:58.403Z,8.27
2018-09-03T16:24:30.017Z,7.57
2018-09-03T16:27:00.047Z,7.47
2018-09-03T16:29:29.951Z,8.17
2018-09-03T16:32:01.487Z,8.07
2018-09-03T16:34:31.615Z,8.83
2018-09-03T16:37:01.694Z,10.80
2018-09-03T16:39:32.250Z,10.70
2018-09-03T16:42:06.091Z,6.93
2018-09-03T16:44:36.489Z,7.40
2018-09-03T16:47:06.794Z,7.20
2018-09-03T16:49:37.126Z,7.27
2018-09-03T16:52:07.626Z,7.87
2018-09-03T16:54:37.436Z,7.97
2018-09-03T16:57:07.425Z,7.40
2018-09-03T16:59:38.001Z,8.30
2018-09-03T17:02:08.309Z,8.17
2018-09-03T17:04:38.255Z,8.30
2018-09-03T17:07:09.824Z,8.40
2018-09-03T17:09:40.329Z,8.20
2018-09-03T17:12:11.114Z,8.03
2018-09-03T17:14:41.457Z,7.93
2018-09-03T17:17:12.048Z,8.40
2018-09-03T17:19:44.005Z,9.27
2018-09-03T17:22:16.064Z,8.30
2018-09-03T17:24:48.553Z,8.80
2018-09-03T17:27:20.797Z,9.07
2018-09-03T17:29:51.976Z,9.90
2018-09-03T17:32:21.608Z,9.47
2018-09-03T17:34:52.298Z,10.53
2018-09-03T17:37:22.552Z,10.13
2018-09-03T17:39:53.453Z,10.50
2018-09-03T17:42:23.939Z,9.07
2018-09-03T17:44:54.323Z,9.10
2018-09-03T17:47:26.015Z,10.17
2018-09-03T17:49:58.057Z,8.57
2018-09-03T17:52:28.656Z,8.97
2018-09-03T17:55:00.321Z,9.17
2018-09-03T17:57:31.638Z,8.27
2018-09-03T18:00:02.228Z,8.73
2018-09-03T18:02:33.291Z,8.30
2018-09-03T18:05:06.115Z,8.30
2018-09-03T18:07:36.935Z,8.97
2018-09-03T18:10:07.817Z,8.30
2018-09-03T18:12:39.063Z,9.30
2018-09-03T18:15:11.127Z,8.73
2018-09-03T18:17:41.224Z,8.10
2018-09-03T18:20:11.261Z,8.50
2018-09-03T18:22:41.825Z,8.60
2018-09-03T18:25:12.614Z,8.50
2018-09-03T18:27:43.145Z,9.00
2018-09-03T18:30:17.229Z,8.80
2018-09-03T18:32:49.789Z,8.53
2018-09-03T18:35:20.077Z,8.90
2018-09-03T18:37:50.203Z,8.60
2018-09-03T18:40:20.463Z,9.73
2018-09-03T18:42:51.639Z,9.50
2018-09-03T18:45:22.539Z,10.80
2018-09-03T18:47:52.915Z,8.50
2018-09-03T18:50:23.064Z,8.37
2018-09-03T18:52:53.567Z,8.70
2018-09-03T18:55:23.771Z,8.17
2018-09-03T18:57:54.060Z,9.03
2018-09-03T19:00:25.189Z,8.00
2018-09-03T19:02:55.535Z,8.70
2018-09-03T19:05:25.656Z,8.70
2018-09-03T19:07:57.108Z,8.60
2018-09-03T19:10:27.135Z,9.33
2018-09-03T19:12:57.645Z,8.63
2018-09-03T19:15:29.908Z,8.80
2018-09-03T19:18:00.269Z,9.57
2018-09-03T19:20:30.863Z,8.40
2018-09-03T19:23:01.190Z,8.87
2018-09-03T19:25:32.956Z,8.13
2018-09-03T19:28:03.421Z,8.50
2018-09-03T19:33:09.156Z,9.43
2018-09-03T19:35:39.361Z,8.87
2018-09-03T19:38:09.659Z,8.50
2018-09-03T19:40:39.901Z,8.80
2018-09-03T19:43:10.101Z,9.47
2018-09-03T19:45:40.362Z,9.10
2018-09-03T19:48:10.836Z,8.50
2018-09-03T19:50:41.115Z,7.80
2018-09-03T19:53:11.475Z,10.10
2018-09-03T19:55:42.909Z,8.00
2018-09-03T19:58:13.114Z,9.27
2018-09-03T20:00:43.351Z,10.07
2018-09-03T20:03:14.376Z,9.53
2018-09-03T20:05:44.644Z,8.80
2018-09-03T20:08:15.668Z,8.27
2018-09-03T20:10:45.884Z,9.10
2018-09-03T20:13:16.304Z,8.20
2018-09-03T20:15:46.715Z,9.07
2018-09-03T20:18:16.900Z,8.73
2018-09-03T20:20:47.105Z,9.23
2018-09-03T20:23:19.130Z,8.37
2018-09-03T20:25:49.346Z,8.50
2018-09-03T20:28:20.356Z,8.77
2018-09-03T20:30:50.305Z,8.70
2018-09-03T20:33:20.653Z,9.67
2018-09-03T20:35:50.864Z,7.60
2018-09-03T20:38:21.414Z,8.70
2018-09-03T20:40:51.543Z,9.40
2018-09-03T20:43:21.864Z,8.87
2018-09-03T20:45:51.940Z,8.87
2018-09-03T20:48:22.933Z,9.33
2018-09-03T20:50:53.518Z,9.13
2018-09-03T20:53:23.779Z,8.47
2018-09-03T20:55:54.257Z,8.97
2018-09-03T20:58:24.478Z,8.00
2018-09-03T21:00:55.729Z,8.10
2018-09-03T21:03:26.163Z,8.23
2018-09-03T21:05:56.321Z,8.17
2018-09-03T21:08:27.172Z,8.50
2018-09-03T21:10:57.530Z,7.80
2018-09-03T21:13:28.018Z,7.53
2018-09-03T21:15:58.575Z,8.37
2018-09-03T21:18:28.790Z,8.63
2018-09-03T21:20:58.842Z,8.20
2018-09-03T21:23:29.009Z,7.87
2018-09-03T21:25:59.183Z,8.47
2018-09-03T21:28:29.175Z,8.50
2018-09-03T21:30:59.100Z,8.13
2018-09-03T21:33:30.037Z,8.00
2018-09-03T21:36:00.022Z,7.77
2018-09-03T21:38:30.356Z,8.73
2018-09-03T21:41:00.520Z,8.30
2018-09-03T21:43:30.715Z,8.40
2018-09-03T21:46:00.567Z,7.00
2018-09-03T21:48:30.606Z,8.10
2018-09-03T21:51:00.901Z,8.57
2018-09-03T21:53:31.257Z,7.10
2018-09-03T21:56:01.644Z,8.20
2018-09-03T21:58:33.270Z,8.20
2018-09-03T22:01:03.562Z,8.70
2018-09-03T22:03:49.870Z,8.00
2018-09-03T22:06:20.345Z,8.20
2018-09-03T22:08:51.013Z,7.70
2018-09-03T22:11:22.193Z,8.53
2018-09-03T22:13:52.299Z,8.90
2018-09-03T22:16:22.593Z,7.90
2018-09-03T22:18:52.888Z,8.47
2018-09-03T22:21:23.006Z,8.20
2018-09-03T22:23:54.097Z,8.97
2018-09-03T22:26:24.521Z,8.43
2018-09-03T22:28:55.423Z,9.30
2018-09-03T22:31:27.343Z,8.70
2018-09-03T22:33:58.225Z,8.37
2018-09-03T22:36:29.407Z,8.70
2018-09-03T22:38:59.696Z,8.30
2018-09-03T22:41:29.703Z,7.47
2018-09-03T22:43:59.984Z,9.30
2018-09-03T22:46:31.220Z,9.10
2018-09-03T22:49:01.160Z,7.70
2018-09-03T22:51:31.468Z,7.87
2018-09-03T22:54:01.564Z,8.67
2018-09-03T22:56:31.707Z,9.27
2018-09-03T22:59:02.033Z,8.20
2018-09-03T23:01:34.039Z,8.60
2018-09-03T23:04:03.978Z,9.47
2018-09-03T23:06:34.252Z,9.10
2018-09-03T23:09:05.545Z,8.27
2018-09-03T23:11:36.030Z,8.80
2018-09-03T23:14:07.161Z,9.20
2018-09-03T23:16:37.241Z,7.93
2018-09-03T23:19:07.529Z,7.80
2018-09-03T23:21:37.944Z,8.97
2018-09-03T23:24:08.623Z,8.87
2018-09-03T23:26:39.535Z,8.73
2018-09-03T23:29:10.092Z,8.80
2018-09-03T23:31:41.808Z,9.20
2018-09-03T23:34:11.893Z,8.47
2018-09-03T23:36:42.580Z,7.97
2018-09-03T23:39:13.866Z,9.20
2018-09-03T23:41:43.901Z,10.00
2018-09-03T23:44:14.215Z,9.47
2018-09-03T23:46:44.521Z,9.17
2018-09-03T23:49:14.714Z,9.27
2018-09-03T23:51:44.749Z,9.50
2018-09-03T23:54:15.160Z,8.70
2018-09-03T23:56:46.066Z,10.13
2018-09-03T23:59:16.529Z,8.57
